Time;durP1;ratioP1;P1;durP2;ratioP2;P2;SDS_P1;SDS_P2;PMS_P1;PMS_P2;Temp;Humidity;BMP_temperature;BMP_pressure;BME280_temperature;BME280_humidity;BME280_pressure;Samples;Min_cycle;Max_cycle;Signal;HPM_P1;HPM_P2
2021/07/14 00:02:14;;;;;;;3.70;3.40;;;27.10;49.80;;;31.02;33.43;100637.16;5115445;28;20051;-52
2021/07/14 00:04:40;;;;;;;3.67;3.38;;;27.20;49.80;;;31.05;33.28;100636.81;5115167;28;20051;-48
2021/07/14 00:07:06;;;;;;;3.47;3.17;;;27.20;49.80;;;31.01;33.27;100617.41;5115353;28;20035;-50
2021/07/14 00:09:33;;;;;;;3.80;3.50;;;27.10;49.80;;;31.02;33.39;100616.41;5096775;28;20104;-52
2021/07/14 00:12:02;;;;;;;3.35;3.13;;;27.10;49.80;;;31.03;33.41;100628.06;5115328;28;20039;-54
2021/07/14 00:17:18;;;;;;;3.38;3.17;;;27.10;49.80;;;31.00;33.42;100614.88;5113646;28;20039;-53
2021/07/14 00:22:32;;;;;;;3.40;3.20;;;27.20;49.90;;;31.01;33.37;100627.38;5114877;28;20430;-53
2021/07/14 00:24:58;;;;;;;4.00;3.70;;;27.10;49.80;;;30.98;33.33;100622.31;5114686;28;20050;-53
2021/07/14 00:27:25;;;;;;;3.60;3.30;;;27.10;49.80;;;30.99;33.43;100615.88;5114740;28;20043;-50
2021/07/14 00:29:54;;;;;;;3.40;3.20;;;27.10;49.80;;;30.95;33.35;100612.69;5114859;28;20073;-53
2021/07/14 00:32:22;;;;;;;3.40;3.20;;;27.10;49.90;;;30.98;33.53;100620.44;5114697;28;20057;-49
2021/07/14 00:34:48;;;;;;;3.55;3.25;;;27.10;49.90;;;30.96;33.40;100614.38;5115007;28;20048;-54
2021/07/14 00:37:14;;;;;;;3.92;3.38;;;27.10;49.90;;;30.97;33.35;100607.97;5114625;28;20100;-47
2021/07/14 00:39:42;;;;;;;3.30;3.10;;;27.10;50.40;;;30.98;33.33;100603.41;5114596;28;20048;-48
2021/07/14 00:42:10;;;;;;;3.53;3.22;;;27.10;49.80;;;30.93;33.46;100590.38;5114425;28;20132;-46
2021/07/14 00:44:35;;;;;;;3.53;3.22;;;27.10;49.90;;;30.95;33.39;100587.53;5115193;28;20391;-48
2021/07/14 00:47:02;;;;;;;3.90;3.60;;;27.00;49.80;;;30.95;33.37;100587.53;5114600;28;20035;-49
2021/07/14 00:49:30;;;;;;;3.53;3.25;;;27.10;49.90;;;30.95;33.40;100584.84;5114491;28;20472;-52
2021/07/14 00:51:56;;;;;;;3.60;3.30;;;27.00;49.90;;;30.93;33.50;100578.75;5096451;28;20047;-53
2021/07/14 00:54:21;;;;;;;3.47;3.20;;;27.00;49.90;;;30.95;33.46;100574.88;5114471;28;20054;-52
2021/07/14 00:56:48;;;;;;;3.42;3.20;;;27.00;49.90;;;30.92;33.49;100585.97;5114717;28;20039;-53
2021/07/14 00:59:14;;;;;;;3.58;3.30;;;27.00;49.90;;;30.91;33.56;100576.22;5096236;28;20067;-52
2021/07/14 01:01:40;;;;;;;3.33;3.03;;;27.00;49.90;;;30.92;33.41;100568.94;5114270;28;20090;-55
2021/07/14 01:04:13;;;;;;;3.25;3.05;;;27.00;49.90;;;30.87;33.49;100558.66;5096158;28;20121;-52
2021/07/14 01:07:03;;;;;;;3.33;3.13;;;27.00;49.90;;;30.87;33.49;100569.44;5096076;28;20059;-53
2021/07/14 01:09:46;;;;;;;3.28;3.08;;;27.00;49.90;;;30.88;33.43;100568.44;5095974;28;20108;-53
2021/07/14 01:12:32;;;;;;;3.50;3.20;;;27.00;50.00;;;30.87;33.45;100565.91;5113978;28;20062;-55
2021/07/14 01:15:08;;;;;;;3.30;3.10;;;27.00;50.00;;;30.84;33.45;100564.41;5114045;28;20372;-52
2021/07/14 01:17:43;;;;;;;3.70;3.40;;;27.00;50.00;;;30.84;33.59;100561.72;5114432;28;20452;-50
2021/07/14 01:20:17;;;;;;;3.78;3.35;;;26.90;49.90;;;30.85;33.43;100563.38;5095101;28;20055;-55
2021/07/14 01:23:05;;;;;;;3.70;3.40;;;26.90;49.90;;;30.79;33.38;100556.81;5095795;28;20475;-54
2021/07/14 01:25:59;;;;;;;3.60;3.30;;;26.90;49.90;;;30.83;33.45;100560.00;5113753;28;20052;-51
2021/07/14 01:28:27;;;;;;;3.38;3.15;;;27.00;50.00;;;30.84;33.54;100562.53;5111781;28;20040;-54
2021/07/14 01:30:55;;;;;;;3.30;3.10;;;27.00;50.00;;;30.84;33.35;100569.81;5114143;28;20096;-52
2021/07/14 01:33:28;;;;;;;3.72;3.42;;;27.00;50.00;;;30.80;33.44;100563.88;5114029;28;20104;-52
2021/07/14 01:35:58;;;;;;;3.33;3.03;;;26.90;50.00;;;30.81;33.40;100568.28;5112631;28;20498;-55
2021/07/14 01:38:26;;;;;;;3.50;3.20;;;26.90;50.00;;;30.81;33.43;100564.75;5113665;28;20039;-52
2021/07/14 01:40:55;;;;;;;3.17;2.97;;;26.90;50.00;;;30.82;33.28;100563.72;5095778;28;20097;-53
2021/07/14 01:43:24;;;;;;;3.20;3.00;;;26.90;50.00;;;30.81;33.57;100559.34;5095407;28;20044;-50
2021/07/14 01:45:53;;;;;;;3.10;2.90;;;26.90;50.00;;;30.79;33.55;100555.94;5095353;28;20043;-53
2021/07/14 01:48:24;;;;;;;3.53;3.22;;;26.90;50.00;;;30.79;33.64;100545.16;5095477;28;20078;-51
2021/07/14 01:50:51;;;;;;;3.23;3.03;;;26.90;50.00;;;30.80;33.41;100544.16;5095632;28;20414;-53
2021/07/14 01:53:20;;;;;;;3.20;3.00;;;26.90;50.00;;;30.78;33.48;100549.72;5095223;28;20671;-55
2021/07/14 01:55:48;;;;;;;3.10;2.80;;;26.90;50.00;;;30.79;33.56;100551.41;5095325;28;20443;-54
2021/07/14 01:58:17;;;;;;;3.10;2.90;;;26.90;50.10;;;30.76;33.59;100548.19;5113420;28;20036;-49
2021/07/14 02:00:47;;;;;;;3.50;3.20;;;26.90;50.10;;;30.75;33.52;100543.81;5095148;28;20484;-52
2021/07/14 02:03:28;;;;;;;2.92;2.72;;;26.90;50.10;;;30.74;33.34;100548.38;5113353;28;20070;-54
2021/07/14 02:06:00;;;;;;;3.40;3.10;;;26.90;50.10;;;30.77;33.48;100561.53;5097229;28;20051;-55
2021/07/14 02:08:27;;;;;;;3.42;3.22;;;26.90;50.10;;;30.74;33.47;100556.47;5095552;28;20048;-51
2021/07/14 02:10:54;;;;;;;3.15;2.85;;;26.90;50.10;;;30.74;33.62;100544.81;5111248;28;20055;-54
2021/07/14 02:13:22;;;;;;;3.47;3.17;;;26.90;50.10;;;30.77;33.58;100541.78;5094942;28;20048;-54
2021/07/14 02:15:53;;;;;;;3.35;3.15;;;26.90;50.10;;;30.75;33.51;100560.84;5113259;28;20051;-52
2021/07/14 02:18:23;;;;;;;;;;;26.80;50.10;;;30.83;33.38;100560.00;5095421;28;20088;-54
2021/07/14 02:20:49;;;;;;;3.28;3.08;;;26.90;50.10;;;-147.20;100.00;58430.41;5113074;28;19923;-54
2021/07/14 02:23:15;;;;;;;2.88;2.67;;;26.90;50.20;;;-147.20;100.00;58430.41;5113318;28;20047;-51
2021/07/14 02:25:40;;;;;;;3.33;3.13;;;26.80;50.10;;;-147.20;100.00;58430.41;5113084;28;20055;-54
2021/07/14 02:28:07;;;;;;;2.88;2.67;;;26.80;50.10;;;-147.20;100.00;58430.41;5112700;28;20151;-53
2021/07/14 02:30:33;;;;;;;3.30;3.10;;;26.80;50.10;;;-147.20;100.00;58430.41;5112840;28;20043;-51
2021/07/14 02:33:06;;;;;;;3.17;2.92;;;26.80;50.10;;;-147.20;100.00;58430.41;5113197;28;20503;-53
2021/07/14 02:35:38;;;;;;;2.97;2.78;;;26.80;50.10;;;-147.20;100.00;58430.41;5112915;28;20086;-53
2021/07/14 02:38:39;;;;;;;3.03;2.80;;;26.80;50.20;;;-147.20;100.00;58430.41;5093369;28;20094;-49
2021/07/14 02:41:25;;;;;;;2.90;2.70;;;26.80;50.20;;;-147.20;100.00;58430.41;5110238;28;20505;-52
2021/07/14 02:43:58;;;;;;;3.00;2.80;;;26.80;50.20;;;-147.20;100.00;58430.41;5093689;28;20079;-51
2021/07/14 02:46:27;;;;;;;3.35;3.05;;;26.80;50.20;;;-147.20;100.00;58430.41;5113734;28;20047;-52
2021/07/14 02:49:00;;;;;;;3.60;3.30;;;26.80;50.20;;;-147.20;100.00;58430.41;5098372;28;20126;-52
2021/07/14 02:51:30;;;;;;;3.22;3.03;;;26.80;50.20;;;-147.20;100.00;58430.41;5098421;28;20044;-51
2021/07/14 02:54:00;;;;;;;3.00;2.80;;;26.80;50.20;;;-147.20;100.00;58430.41;5097805;28;20043;-49
2021/07/14 02:56:29;;;;;;;3.15;2.95;;;26.80;50.20;;;-147.20;100.00;58430.41;5098156;28;20066;-51
2021/07/14 02:59:00;;;;;;;2.92;2.67;;;26.80;50.30;;;-147.20;100.00;58430.41;5098252;28;20080;-53
2021/07/14 03:01:28;;;;;;;2.70;2.50;;;26.70;50.20;;;-147.20;100.00;58430.41;5116248;28;20055;-54
2021/07/14 03:03:54;;;;;;;3.65;3.25;;;26.70;50.20;;;-147.20;100.00;58430.41;5116017;28;20498;-48
2021/07/14 03:06:21;;;;;;;3.10;2.90;;;26.70;50.20;;;-147.20;100.00;58430.41;5096513;28;20063;-49
2021/07/14 03:08:50;;;;;;;3.40;3.10;;;26.70;50.20;;;-147.20;100.00;58430.41;5116300;28;20044;-48
2021/07/14 03:11:17;;;;;;;2.85;2.65;;;26.70;50.20;;;-147.20;100.00;58430.41;5097735;28;20044;-54
2021/07/14 03:13:46;;;;;;;3.15;2.95;;;26.70;50.30;;;-147.20;100.00;58430.41;5116049;28;20376;-52
2021/07/14 03:16:13;;;;;;;2.78;2.58;;;26.70;50.30;;;-147.20;100.00;58430.41;5116260;28;20498;-49
2021/07/14 03:18:41;;;;;;;3.35;3.00;;;26.70;50.30;;;-147.20;100.00;58430.41;5116050;28;20043;-48
2021/07/14 03:21:07;;;;;;;3.20;2.90;;;26.70;50.30;;;-147.20;100.00;58430.41;5095925;28;20036;-49
2021/07/14 03:23:37;;;;;;;3.10;2.90;;;26.70;50.80;;;-147.20;100.00;58430.41;5116060;28;20070;-54
2021/07/14 03:26:03;;;;;;;3.10;2.80;;;26.70;50.30;;;-147.20;100.00;58430.41;5115855;28;20101;-50
2021/07/14 03:28:30;;;;;;;3.10;2.90;;;26.70;50.30;;;-147.20;100.00;58430.41;5097594;28;20077;-49
2021/07/14 03:31:01;;;;;;;3.20;3.00;;;26.70;50.30;;;-147.20;100.00;58430.41;5115772;28;20100;-52
2021/07/14 03:33:30;;;;;;;3.20;3.00;;;26.70;50.30;;;-147.20;100.00;58430.41;5098164;28;20055;-49
2021/07/14 03:35:59;;;;;;;3.28;3.08;;;26.70;50.30;;;-147.20;100.00;58430.41;5097388;28;20043;-51
2021/07/14 03:38:30;;;;;;;3.40;3.10;;;26.60;50.20;;;-147.20;100.00;58430.41;5097656;28;20399;-49
2021/07/14 03:40:58;;;;;;;2.97;2.65;;;26.60;50.20;;;-147.20;100.00;58430.41;5097974;28;20048;-49
2021/07/14 03:43:28;;;;;;;3.17;2.95;;;26.60;50.30;;;-147.20;100.00;58430.41;5115478;28;20054;-49
2021/07/14 03:45:56;;;;;;;3.13;2.83;;;26.60;50.30;;;-147.20;100.00;58430.41;5096911;28;20406;-49
2021/07/14 03:48:23;;;;;;;3.20;3.00;;;26.60;50.30;;;-147.20;100.00;58430.41;5080675;28;20048;-51
2021/07/14 03:50:53;;;;;;;3.60;3.30;;;26.60;50.30;;;-147.20;100.00;58430.41;5115308;28;20096;-50
2021/07/14 03:53:23;;;;;;;2.83;2.63;;;26.60;50.30;;;-147.20;100.00;58430.41;5097475;28;20512;-52
2021/07/14 03:55:51;;;;;;;3.03;2.83;;;26.60;50.30;;;-147.20;100.00;58430.41;5115442;28;20047;-50
2021/07/14 03:58:18;;;;;;;3.13;2.92;;;26.60;50.40;;;-147.20;100.00;58430.41;5096664;28;20056;-54
2021/07/14 04:00:47;;;;;;;2.83;2.63;;;26.60;50.40;;;-147.20;100.00;58430.41;5097067;28;20071;-52
2021/07/14 04:03:21;;;;;;;3.47;3.28;;;26.60;50.40;;;-147.20;100.00;58430.41;5115126;28;20488;-48
2021/07/14 04:05:53;;;;;;;3.00;2.80;;;26.60;50.40;;;-147.20;100.00;58430.41;5115182;28;20487;-49
2021/07/14 04:08:32;;;;;;;2.90;2.70;;;26.60;50.50;;;-147.20;100.00;58430.41;5115805;28;20066;-52
2021/07/14 04:10:57;;;;;;;3.17;2.97;;;26.60;50.40;;;-147.20;100.00;58430.41;5095223;28;20067;-49
2021/07/14 04:13:23;;;;;;;3.30;3.10;;;26.60;50.50;;;-147.20;100.00;58430.41;5115264;28;20492;-51
2021/07/14 04:15:49;;;;;;;3.22;3.03;;;26.60;50.50;;;-147.20;100.00;58430.41;5115000;28;20057;-50
2021/07/14 04:18:17;;;;;;;3.17;2.90;;;26.60;50.50;;;-147.20;100.00;58430.41;5115076;28;20076;-49
2021/07/14 04:20:43;;;;;;;3.30;3.00;;;26.60;50.50;;;-147.20;100.00;58430.41;5114833;28;20403;-50
2021/07/14 04:23:10;;;;;;;3.00;2.80;;;26.60;50.50;;;-147.20;100.00;58430.41;5115114;28;20040;-50
2021/07/14 04:25:36;;;;;;;3.13;2.92;;;26.60;50.50;;;-147.20;100.00;58430.41;5114920;28;20055;-52
2021/07/14 04:28:02;;;;;;;3.15;2.85;;;26.50;50.50;;;-147.20;100.00;58430.41;5114977;28;20518;-48
2021/07/14 04:30:28;;;;;;;2.70;2.50;;;26.50;50.50;;;-147.20;100.00;58430.41;5114666;28;20052;-46
2021/07/14 04:32:54;;;;;;;3.00;2.80;;;26.50;50.50;;;-147.20;100.00;58430.41;5095827;28;20052;-48
2021/07/14 04:35:19;;;;;;;3.28;3.05;;;26.50;50.50;;;-147.20;100.00;58430.41;5114846;28;20051;-46
2021/07/14 04:37:49;;;;;;;3.08;2.88;;;26.50;50.50;;;-147.20;100.00;58430.41;5096079;28;20051;-53
2021/07/14 04:40:15;;;;;;;2.70;2.50;;;26.50;50.60;;;-147.20;100.00;58430.41;5114665;28;20047;-45
2021/07/14 04:42:41;;;;;;;3.40;3.10;;;26.50;50.50;;;-147.20;100.00;58430.41;5096768;28;20096;-45
2021/07/14 04:45:07;;;;;;;2.80;2.60;;;26.50;50.60;;;-147.20;100.00;58430.41;5114617;28;20039;-49
2021/07/14 04:47:33;;;;;;;2.90;2.70;;;26.50;50.50;;;-147.20;100.00;58430.41;5114552;28;20051;-45
2021/07/14 04:49:59;;;;;;;3.13;2.92;;;26.50;50.50;;;-147.20;100.00;58430.41;5113111;28;20052;-47
2021/07/14 04:52:24;;;;;;;3.10;2.90;;;26.50;50.60;;;-147.20;100.00;58430.41;5096035;28;20051;-48
2021/07/14 04:54:50;;;;;;;2.90;2.70;;;26.50;50.50;;;30.80;33.22;100552.25;5114353;28;20495;-50
2021/07/14 04:57:16;;;;;;;3.17;2.97;;;26.50;50.60;;;30.44;33.81;100593.84;5114693;28;20061;-53
2021/07/14 04:59:42;;;;;;;3.17;2.97;;;26.50;50.50;;;30.44;33.89;100598.41;5114560;28;20130;-45
2021/07/14 05:02:07;;;;;;;2.67;2.47;;;26.50;50.50;;;30.45;33.80;100597.38;5114269;28;20403;-51
2021/07/14 05:04:34;;;;;;;2.90;2.70;;;26.50;50.50;;;30.41;33.98;100586.06;5114268;28;20473;-49
2021/07/14 05:07:01;;;;;;;3.03;2.83;;;26.50;50.50;;;30.44;33.98;100583.06;5114249;28;20044;-49
2021/07/14 05:09:27;;;;;;;3.10;2.90;;;26.50;50.50;;;30.44;33.78;100583.06;5113935;28;20456;-50
2021/07/14 05:11:53;;;;;;;3.00;2.80;;;26.50;50.50;;;30.44;34.00;100574.97;5114143;28;20043;-52
2021/07/14 05:14:19;;;;;;;2.95;2.75;;;26.50;50.50;;;30.44;34.06;100585.75;5112707;28;20043;-49
2021/07/14 05:16:45;;;;;;;2.78;2.58;;;26.50;50.50;;;30.45;33.92;100584.72;5114010;28;20059;-47
2021/07/14 05:19:14;;;;;;;3.22;2.97;;;26.50;50.50;;;30.44;34.01;100571.44;5095780;28;20101;-49
2021/07/14 05:21:42;;;;;;;3.38;3.10;;;26.50;50.50;;;30.46;33.87;100583.72;5113973;28;20380;-46
2021/07/14 05:24:09;;;;;;;2.90;2.70;;;26.50;50.50;;;30.45;33.81;100578.50;5113863;28;20407;-51
2021/07/14 05:26:36;;;;;;;3.08;2.88;;;26.50;50.50;;;30.45;33.83;100584.72;5113866;28;20494;-50
2021/07/14 05:29:02;;;;;;;2.80;2.60;;;26.50;50.50;;;30.45;33.89;100583.88;5113925;28;20101;-49
2021/07/14 05:31:28;;;;;;;3.00;2.80;;;26.60;50.50;;;30.45;33.87;100582.03;5113794;28;20039;-51
2021/07/14 05:33:53;;;;;;;3.10;2.90;;;26.60;50.50;;;30.47;33.93;100581.88;5113783;28;20043;-52
2021/07/14 05:36:19;;;;;;;3.42;3.13;;;26.60;50.50;;;30.44;33.79;100580.34;5095444;28;20039;-48
2021/07/14 05:38:45;;;;;;;3.47;2.80;;;26.50;50.40;;;30.47;33.77;100576.47;5113556;28;20066;-50
2021/07/14 05:41:11;;;;;;;2.90;2.70;;;26.50;50.40;;;30.45;33.70;100582.03;5095253;28;20051;-48
2021/07/14 05:43:37;;;;;;;2.95;2.75;;;26.60;50.50;;;30.45;33.75;100579.31;5113401;28;20044;-45
2021/07/14 05:46:04;;;;;;;2.92;2.72;;;26.50;50.40;;;30.46;33.76;100582.88;5114053;28;20108;-47
2021/07/14 05:48:29;;;;;;;2.75;2.55;;;26.60;51.00;;;30.44;33.79;100579.53;5113395;28;20096;-51
2021/07/14 05:50:57;;;;;;;2.97;2.78;;;26.50;50.40;;;30.46;33.74;100593.69;5113629;28;20051;-48
2021/07/14 05:53:24;;;;;;;2.88;2.67;;;26.60;50.50;;;30.44;33.79;100593.84;5113221;28;20087;-47
2021/07/14 05:55:50;;;;;;;3.58;3.28;;;26.60;50.40;;;30.43;33.99;100592.16;5113309;28;20043;-50
2021/07/14 05:58:16;;;;;;;3.15;2.95;;;26.60;50.40;;;30.42;33.86;100579.69;5113221;28;20063;-51
2021/07/14 06:00:44;;;;;;;2.70;2.50;;;26.60;50.40;;;30.44;33.75;100579.53;5113458;28;20050;-51
2021/07/14 06:03:10;;;;;;;2.90;2.70;;;26.60;50.40;;;-147.20;100.00;58430.41;5113364;28;20130;-50
2021/07/14 06:05:36;;;;;;;2.90;2.70;;;26.60;50.50;;;-147.20;100.00;58430.41;5112953;28;20078;-47
2021/07/14 06:08:04;;;;;;;2.67;2.47;;;26.60;50.40;;;-147.20;100.00;58430.41;5113070;28;20075;-52
2021/07/14 06:10:30;;;;;;;3.03;2.83;;;26.50;50.30;;;-147.20;100.00;58430.41;5113124;28;20074;-50
2021/07/14 06:12:56;;;;;;;2.58;2.38;;;26.60;50.40;;;-147.20;100.00;58430.41;5112834;28;20056;-51
2021/07/14 06:15:26;;;;;;;2.88;2.67;;;26.50;50.40;;;-147.20;100.00;58430.41;5113327;28;20052;-53
2021/07/14 06:17:53;;;;;;;2.97;2.78;;;26.50;50.40;;;-147.20;100.00;58430.41;5113148;28;20453;-49
2021/07/14 06:20:20;;;;;;;3.10;2.90;;;26.50;50.40;;;-147.20;100.00;58430.41;5113353;28;20082;-50
2021/07/14 06:22:47;;;;;;;2.67;2.47;;;26.50;50.40;;;-147.20;100.00;58430.41;5112208;28;20513;-53
2021/07/14 06:25:13;;;;;;;2.85;2.65;;;26.50;50.40;;;-147.20;100.00;58430.41;5112836;28;20054;-50
2021/07/14 06:27:41;;;;;;;2.78;2.58;;;26.50;50.50;;;-147.20;100.00;58430.41;5112969;28;20087;-47
2021/07/14 06:30:09;;;;;;;2.72;2.53;;;26.50;50.50;;;-147.20;100.00;58430.41;5113053;28;20047;-50
2021/07/14 06:32:39;;;;;;;2.58;2.40;;;26.50;50.50;;;-147.20;100.00;58430.41;5112727;28;20047;-52
2021/07/14 06:35:09;;;;;;;2.95;2.75;;;26.50;50.50;;;-147.20;100.00;58430.41;5113189;28;20051;-48
2021/07/14 06:37:37;;;;;;;2.78;2.58;;;26.50;50.50;;;-147.20;100.00;58430.41;5112776;28;20050;-49
2021/07/14 06:40:06;;;;;;;3.00;2.80;;;26.50;50.60;;;-147.20;100.00;58430.41;5112730;28;20054;-52
2021/07/14 06:42:32;;;;;;;2.80;2.60;;;26.50;50.60;;;-147.20;100.00;58430.41;5093934;28;20487;-48
2021/07/14 06:44:58;;;;;;;3.15;2.95;;;26.50;50.60;;;-147.20;100.00;58430.41;5113397;28;20044;-49
2021/07/14 06:47:23;;;;;;;2.90;2.70;;;26.50;50.60;;;-147.20;100.00;58430.41;5112986;28;20055;-48
2021/07/14 06:49:50;;;;;;;2.58;2.38;;;26.50;50.60;;;-147.20;100.00;58430.41;5112736;28;20571;-50
2021/07/14 06:52:15;;;;;;;3.33;3.13;;;26.40;50.50;;;-147.20;100.00;58430.41;5112773;28;20078;-47
2021/07/14 06:54:41;;;;;;;2.42;2.30;;;26.50;51.00;;;-147.20;100.00;58430.41;5112742;28;20075;-51
2021/07/14 06:57:08;;;;;;;3.05;2.85;;;26.50;50.60;;;-147.20;100.00;58430.41;5092352;28;20053;-49
2021/07/14 06:59:34;;;;;;;2.90;2.70;;;26.50;50.50;;;-147.20;100.00;58430.41;5112932;28;20039;-50
2021/07/14 07:02:04;;;;;;;2.92;2.72;;;26.50;50.50;;;-147.20;100.00;58430.41;5112437;28;20051;-50
2021/07/14 07:04:31;;;;;;;3.13;2.88;;;26.50;50.50;;;-147.20;100.00;58430.41;5094761;28;20059;-45
2021/07/14 07:06:57;;;;;;;2.92;2.72;;;26.50;50.50;;;-147.20;100.00;58430.41;5112374;28;20070;-50
2021/07/14 07:09:24;;;;;;;2.90;2.70;;;26.50;50.50;;;-147.20;100.00;58430.41;5112386;28;20545;-50
2021/07/14 07:11:50;;;;;;;2.85;2.65;;;26.50;50.40;;;-147.20;100.00;58430.41;5112421;28;20047;-53
2021/07/14 07:14:15;;;;;;;3.08;2.80;;;26.50;50.40;;;-147.20;100.00;58430.41;5112690;28;20059;-52
2021/07/14 07:16:41;;;;;;;2.97;2.78;;;26.50;50.40;;;-147.20;100.00;58430.41;5112468;28;20047;-48
2021/07/14 07:19:07;;;;;;;2.88;2.67;;;26.60;50.40;;;-147.20;100.00;58430.41;5112635;28;20471;-51
2021/07/14 07:21:34;;;;;;;3.05;2.85;;;26.60;50.30;;;-147.20;100.00;58430.41;5112358;28;20141;-48
2021/07/14 07:23:59;;;;;;;2.88;2.67;;;26.50;50.40;;;-147.20;100.00;58430.41;5112200;28;20063;-53
2021/07/14 07:26:26;;;;;;;2.72;2.53;;;26.60;50.20;;;-147.20;100.00;58430.41;5112283;28;20068;-51
2021/07/14 07:28:58;;;;;;;3.00;2.80;;;26.60;50.20;;;-147.20;100.00;58430.41;5112182;28;20040;-52
2021/07/14 07:31:25;;;;;;;2.92;2.72;;;26.60;50.20;;;-147.20;100.00;58430.41;5112316;28;20567;-47
2021/07/14 07:33:51;;;;;;;2.80;2.60;;;26.60;50.20;;;-147.20;100.00;58430.41;5114034;28;20073;-49
2021/07/14 07:36:17;;;;;;;3.20;2.90;;;26.70;50.20;;;-147.20;100.00;58430.41;5115646;28;20048;-50
2021/07/14 07:38:43;;;;;;;2.97;2.78;;;26.70;50.20;;;-147.20;100.00;58430.41;5113082;28;20480;-50
2021/07/14 07:41:11;;;;;;;2.80;2.60;;;26.60;50.10;;;-147.20;100.00;58430.41;5115540;28;20078;-51
2021/07/14 07:43:37;;;;;;;2.70;2.50;;;26.60;50.10;;;-147.20;100.00;58430.41;5115900;28;20079;-46
2021/07/14 07:46:03;;;;;;;2.90;2.70;;;26.70;50.20;;;-147.20;100.00;58430.41;5115605;28;20056;-47
2021/07/14 07:48:29;;;;;;;2.75;2.55;;;26.60;50.10;;;-147.20;100.00;58430.41;5115502;28;20427;-47
2021/07/14 07:50:55;;;;;;;2.90;2.70;;;26.70;50.20;;;-147.20;100.00;58430.41;5115603;28;20497;-51
2021/07/14 07:53:22;;;;;;;3.03;2.83;;;26.60;50.10;;;-147.20;100.00;58430.41;5115337;28;20051;-51
2021/07/14 07:55:50;;;;;;;3.03;2.83;;;26.70;50.20;;;-147.20;100.00;58430.41;5115247;28;20094;-51
2021/07/14 07:58:18;;;;;;;2.45;2.25;;;26.70;50.10;;;-147.20;100.00;58430.41;5115534;28;20047;-50
2021/07/14 08:00:46;;;;;;;2.70;2.50;;;26.70;50.10;;;-147.20;100.00;58430.41;5115088;28;20051;-50
2021/07/14 08:03:15;;;;;;;3.03;2.83;;;26.70;50.00;;;-147.20;100.00;58430.41;5114885;28;20043;-51
2021/07/14 08:05:41;;;;;;;2.92;2.72;;;26.80;50.10;;;-147.20;100.00;58430.41;5115621;28;20036;-53
2021/07/14 08:08:07;;;;;;;2.67;2.47;;;26.80;50.00;;;-147.20;100.00;58430.41;5112763;28;20048;-48
2021/07/14 08:10:33;;;;;;;2.88;2.67;;;26.80;49.90;;;-147.20;100.00;58430.41;5114851;28;20052;-50
2021/07/14 08:12:59;;;;;;;2.55;2.35;;;26.80;49.90;;;-147.20;100.00;58430.41;5113134;28;20380;-50
2021/07/14 08:15:26;;;;;;;3.08;2.85;;;26.80;49.80;;;-147.20;100.00;58430.41;5095369;28;20051;-46
2021/07/14 08:17:52;;;;;;;2.47;2.28;;;26.80;49.80;;;-147.20;100.00;58430.41;5114781;28;20048;-47
2021/07/14 08:20:18;;;;;;;2.70;2.50;;;26.90;49.80;;;-147.20;100.00;58430.41;5114760;28;20052;-48
2021/07/14 08:22:43;;;;;;;2.90;2.70;;;26.90;49.80;;;-147.20;100.00;58430.41;5114968;28;20047;-47
2021/07/14 08:25:11;;;;;;;2.78;2.58;;;26.90;49.70;;;-147.20;100.00;58430.41;5096409;28;20487;-49
2021/07/14 08:27:38;;;;;;;2.92;2.72;;;26.90;49.60;;;-147.20;100.00;58430.41;5114609;28;20135;-51
2021/07/14 08:30:06;;;;;;;2.85;2.65;;;26.90;49.60;;;-147.20;100.00;58430.41;5114580;28;20052;-47
2021/07/14 08:32:32;;;;;;;2.88;2.67;;;27.00;49.60;;;-147.20;100.00;58430.41;5114599;28;20403;-46
2021/07/14 08:34:58;;;;;;;3.03;2.83;;;26.90;49.60;;;-147.20;100.00;58430.41;5114497;28;20040;-48
2021/07/14 08:37:25;;;;;;;2.67;2.47;;;27.00;49.60;;;-147.20;100.00;58430.41;5114908;28;20475;-54
2021/07/14 08:39:53;;;;;;;2.85;2.65;;;27.00;49.70;;;-147.20;100.00;58430.41;5114504;28;20475;-48
2021/07/14 08:42:21;;;;;;;2.75;2.53;;;27.10;49.60;;;-147.20;100.00;58430.41;5115000;28;20054;-47
2021/07/14 08:44:49;;;;;;;3.13;2.63;;;27.10;49.70;;;-147.20;100.00;58430.41;5114078;28;20063;-52
2021/07/14 08:47:16;;;;;;;2.70;2.50;;;27.10;49.50;;;-147.20;100.00;58430.41;5114664;28;20055;-52
2021/07/14 08:49:45;;;;;;;3.20;2.95;;;27.20;49.60;;;-147.20;100.00;58430.41;5114588;28;20121;-50
2021/07/14 08:52:12;;;;;;;3.22;3.03;;;27.20;49.60;;;-147.20;100.00;58430.41;5114450;28;20043;-46
2021/07/14 08:54:43;;;;;;;2.90;2.70;;;27.20;50.20;;;-147.20;100.00;58430.41;5114486;28;20122;-48
2021/07/14 08:57:14;;;;;;;2.80;2.60;;;27.20;49.60;;;-147.20;100.00;58430.41;5114841;28;20040;-49
2021/07/14 08:59:41;;;;;;;2.83;2.63;;;27.30;49.50;;;-147.20;100.00;58430.41;5112724;28;20402;-51
2021/07/14 09:02:08;;;;;;;2.80;2.60;;;27.30;49.30;;;30.46;33.88;100581.03;5095858;28;20047;-51
2021/07/14 09:04:35;;;;;;;2.70;2.50;;;27.30;49.30;;;31.39;32.57;100500.72;5114267;28;20503;-51
2021/07/14 09:07:01;;;;;;;2.80;2.60;;;27.40;49.10;;;31.45;32.62;100505.44;5114118;28;20054;-49
2021/07/14 09:09:28;;;;;;;2.72;2.53;;;27.30;49.10;;;31.44;32.43;100502.91;5114484;28;20043;-50
2021/07/14 09:12:00;;;;;;;2.67;2.47;;;27.40;49.00;;;31.47;32.39;100503.41;5114362;28;20411;-53
2021/07/14 09:14:33;;;;;;;;;;;27.40;49.00;;;31.58;32.27;100500.38;5114923;28;20043;-52
2021/07/14 09:17:17;;;;;;;2.72;2.53;;;27.30;49.00;;;31.50;32.40;100496.84;5096030;28;19915;-50
2021/07/14 09:19:43;;;;;;;2.70;2.50;;;27.40;49.10;;;31.50;32.37;100508.47;5114023;28;20150;-49
2021/07/14 09:22:26;;;;;;;2.90;2.70;;;27.40;49.00;;;31.46;32.69;100509.84;5113902;28;20468;-51
2021/07/14 09:24:56;;;;;;;2.35;2.25;;;27.30;48.90;;;31.49;32.25;100514.03;5114164;28;20059;-48
2021/07/14 09:27:28;;;;;;;3.05;2.85;;;27.30;48.90;;;31.50;32.28;100515.75;5113617;28;20474;-53
2021/07/14 09:30:12;;;;;;;2.85;2.65;;;27.40;48.90;;;31.51;32.38;100515.59;5113738;28;20107;-46
2021/07/14 09:32:54;;;;;;;2.53;2.33;;;27.40;48.80;;;31.54;32.42;100509.84;5114291;28;20556;-53
2021/07/14 09:35:23;;;;;;;2.60;2.40;;;27.40;48.70;;;-147.20;100.00;58430.41;5113596;28;20052;-49
2021/07/14 09:37:49;;;;;;;2.80;2.60;;;27.50;48.70;;;-147.20;100.00;58430.41;5113368;28;20076;-49
2021/07/14 09:40:17;;;;;;;2.60;2.40;;;27.50;48.60;;;-147.20;100.00;58430.41;5113309;28;20043;-50
2021/07/14 09:42:55;;;;;;;2.53;2.33;;;27.50;48.60;;;-147.20;100.00;58430.41;5113491;28;20048;-50
2021/07/14 09:45:37;;;;;;;2.65;2.45;;;27.50;48.50;;;-147.20;100.00;58430.41;5113692;28;20396;-49
2021/07/14 09:48:07;;;;;;;2.38;2.17;;;27.60;48.60;;;-147.20;100.00;58430.41;5111560;28;20044;-49
2021/07/14 09:50:40;;;;;;;3.00;2.80;;;27.60;48.50;;;-147.20;100.00;58430.41;5093215;28;20051;-53
2021/07/14 09:53:09;;;;;;;3.25;3.05;;;27.60;48.50;;;-147.20;100.00;58430.41;5111161;28;20044;-50
2021/07/14 09:55:36;;;;;;;3.53;3.22;;;27.60;48.50;;;-147.20;100.00;58430.41;5112581;28;20048;-47
2021/07/14 09:58:30;;;;;;;3.03;2.72;;;27.60;48.60;;;-147.20;100.00;58430.41;5112933;28;20055;-48
2021/07/14 10:01:03;;;;;;;2.47;2.28;;;27.70;48.50;;;-147.20;100.00;58430.41;5109748;28;20138;-52
2021/07/14 10:03:50;;;;;;;2.85;2.65;;;27.70;48.50;;;-147.20;100.00;58430.41;5113625;28;20048;-52
2021/07/14 10:06:16;;;;;;;3.25;3.05;;;27.70;48.60;;;-147.20;100.00;58430.41;5094400;28;20043;-48
2021/07/14 10:08:48;;;;;;;2.65;2.45;;;27.70;48.60;;;-147.20;100.00;58430.41;5113210;28;20109;-49
2021/07/14 10:11:20;;;;;;;2.88;2.67;;;27.70;48.50;;;-147.20;100.00;58430.41;5113290;28;20085;-51
2021/07/14 10:14:07;;;;;;;2.80;2.60;;;27.80;48.40;;;-147.20;100.00;58430.41;5094878;28;20063;-49
2021/07/14 10:16:42;;;;;;;2.90;2.70;;;27.80;48.40;;;-147.20;100.00;58430.41;5113082;28;20047;-53
2021/07/14 10:19:19;;;;;;;3.45;3.15;;;27.80;48.40;;;-147.20;100.00;58430.41;5113463;28;20048;-47